Tuesday, October 17, 2017, 2:53 PM EDT
Back to Local

KPVD, Providence Green State Airport

Location: Warwick, RI, United States Lat: 41.733
Local Time: 2:53 PM EDT (18:53 GMT) Lon: -71.433
Time Zone: US/Eastern Elev: 55 ft

Show me the last for .
Show Decoded

2017-10-17 13:51 METAR KPVD 171751Z 00000KT 10SM FEW055 FEW300 14/00 A3027 RMK AO2 SLP249
                 T01390000 10139 20050 58013 =
2017-10-17 12:51 METAR KPVD 171651Z 35006KT 10SM FEW050 13/M01 A3028 RMK AO2 SLP253 T01331006 =
2017-10-17 11:51 METAR KPVD 171551Z VRB04KT 10SM FEW045 FEW300 11/00 A3029 RMK AO2 SLP259
                 T01110000 =
2017-10-17 10:51 METAR KPVD 171451Z 04006KT 10SM FEW040 FEW300 11/01 A3031 RMK AO2 SLP262
                 T01060006 50005 =
2017-10-17 09:51 METAR KPVD 171351Z COR 35009KT 10SM FEW035 FEW300 09/01 A3031 RMK AO2 SLP265
                 T00940006 =
2017-10-17 08:51 METAR KPVD 171251Z 35010KT 10SM FEW020 FEW300 07/01 A3031 RMK AO2 SLP264
                 T00670011 =
2017-10-17 07:51 METAR KPVD 171151Z 35008KT 10SM FEW015 05/01 A3029 RMK AO2 SLP257 T00500011
                 10056 20033 53019 =
2017-10-17 06:51 METAR KPVD 171051Z 35008KT 10SM FEW010 FEW300 04/01 A3027 RMK AO2 SLP249
                 T00390006 =
2017-10-17 05:51 METAR KPVD 170951Z 35008KT 10SM CLR 04/01 A3025 RMK AO2 SLP244 T00390006 =
2017-10-17 04:51 METAR KPVD 170851Z 34007KT 10SM CLR 04/01 A3023 RMK AO2 SLP238 T00440006 53018 =
2017-10-17 03:51 METAR KPVD 170751Z 35008KT 10SM CLR 05/01 A3021 RMK AO2 SLP230 T00500006 =
2017-10-17 02:51 METAR KPVD 170651Z 34007KT 10SM CLR 06/01 A3019 RMK AO2 SLP225 T00560006 =
2017-10-17 01:51 METAR KPVD 170551Z 35006KT 10SM CLR 06/01 A3018 RMK AO2 SLP220 T00560011 10106
                 20056 51008 =
2017-10-17 00:51 METAR KPVD 170451Z 35009KT 10SM CLR 07/01 A3018 RMK AO2 SLP218 T00670006
                 402170067 =
2017-10-16 23:51 METAR KPVD 170351Z 36011KT 10SM FEW030 08/01 A3017 RMK AO2 SLP216 LAST T00780006
                 =
2017-10-16 22:51 METAR KPVD 170251Z COR 36011KT 10SM FEW030 08/02 A3016 RMK AO2 SLP212 T00830022
                 52028 =
2017-10-16 21:51 METAR KPVD 170151Z 36010KT 10SM FEW250 09/03 A3013 RMK AO2 SLP203 T00890033 =
2017-10-16 20:51 METAR KPVD 170051Z 34007KT 10SM FEW250 10/03 A3010 RMK AO2 SLP192 T01000033 =
2017-10-16 19:51 METAR KPVD 162351Z 35010KT 10SM FEW036 FEW140 BKN250 11/03 A3007 RMK AO2 SLP184
                 T01060033 10150 20106 51024 =
2017-10-16 18:51 METAR KPVD 162251Z 34013G19KT 10SM FEW036 FEW140 BKN250 12/03 A3006 RMK AO2
                 SLP178 T01170033 =
2017-10-16 17:51 METAR KPVD 162151Z 33008KT 10SM FEW036 FEW140 BKN250 12/04 A3002 RMK AO2 SLP167
                 T01220044 =
2017-10-16 16:51 METAR KPVD 162051Z 34013KT 10SM FEW036 SCT140 BKN170 OVC250 13/04 A3000 RMK AO2
                 SLP160 T01280044 53026 =
2017-10-16 15:51 METAR KPVD 161951Z 34008KT 10SM FEW036 SCT150 BKN170 OVC250 13/06 A2997 RMK AO2
                 SLP150 T01330056 =

Support USWX by starting your Amazon purchase here.